Thursday, May 5, 2016, 12:45 AM EDT

KSHD, Staunton / Shenandoah

Location: Weyers Cave, VA, United States Lat: 38.267
Local Time: 12:45 AM EDT ( 4:45 GMT) Lon: -78.9
Time Zone: US/Eastern Elev: 1200 ft

Show me the last for .
Show Decoded

2016-05-05 00:15 METAR KSHD 050415Z AUTO 33003KT 10SM SCT100 12/11 A2969 RMK AO2 T01160106 =
2016-05-04 23:55 METAR KSHD 050355Z AUTO 01003KT 10SM SCT100 12/11 A2968 RMK AO2 T01210108 =
2016-05-04 23:35 METAR KSHD 050335Z AUTO 01003KT 10SM BKN100 13/11 A2968 RMK AO2 T01250108 =
2016-05-04 23:15 METAR KSHD 050315Z AUTO 03003KT 10SM OVC100 13/11 A2968 RMK AO2 T01270110 =
2016-05-04 22:55 METAR KSHD 050255Z AUTO 02005KT 10SM SCT080 OVC100 13/11 A2968 RMK AO2 T01290107
                 =
2016-05-04 22:35 METAR KSHD 050235Z AUTO 04005KT 10SM SCT075 SCT080 OVC100 13/11 A2968 RMK AO2
                 T01300106 =
2016-05-04 22:15 METAR KSHD 050215Z AUTO 05007KT 10SM BKN055 OVC075 13/10 A2968 RMK AO2 T01310104
                 =
2016-05-04 21:55 METAR KSHD 050155Z AUTO 06005KT 10SM BKN065 OVC080 13/11 A2968 RMK AO2 LTG DSNT
                 NE T01330105 =
2016-05-04 21:35 METAR KSHD 050135Z AUTO 02009KT 10SM BKN065 OVC075 14/10 A2968 RMK AO2 T01390101
                 =
2016-05-04 21:15 METAR KSHD 050115Z AUTO 34006KT 10SM SCT055 OVC065 14/11 A2968 RMK AO2 LTG DSNT
                 SE T01350110 =
2016-05-04 20:55 METAR KSHD 050055Z AUTO 33005KT 10SM BKN055 BKN065 OVC075 14/11 A2968 RMK AO2
                 LTG DSNT NE AND SE T01410106 =
2016-05-04 20:35 METAR KSHD 050035Z AUTO 03005KT 10SM BKN060 OVC070 15/11 A2967 RMK AO2 LTG DSNT
                 SE AND S T01450105 =
2016-05-04 20:15 METAR KSHD 050015Z AUTO 33003KT 10SM BKN060 BKN080 BKN100 15/11 A2967 RMK AO2
                 T01450109 =
2016-05-04 19:55 METAR KSHD 042355Z AUTO 33006KT 10SM SCT060 BKN100 15/11 A2965 RMK AO2 T01450110
                 10202 20145 =
2016-05-04 19:35 METAR KSHD 042335Z AUTO 34006KT 10SM SCT060 SCT110 15/11 A2964 RMK AO2 T01540107
                 =
2016-05-04 19:15 METAR KSHD 042315Z AUTO 34006KT 10SM SCT060 SCT110 16/10 A2964 RMK AO2 T01630101
                 =
2016-05-04 18:55 METAR KSHD 042255Z AUTO 33009KT 10SM SCT060 17/10 A2964 RMK AO2 T01650099 =
2016-05-04 18:35 METAR KSHD 042235Z AUTO 31010KT 10SM BKN060 18/09 A2963 RMK AO2 T01810091 =
2016-05-04 18:15 METAR KSHD 042215Z AUTO 03005KT 10SM SCT060 18/10 A2962 RMK AO2 LTG DSNT W
                 T01780096 =
2016-05-04 17:55 METAR KSHD 042155Z AUTO 02005KT 10SM CLR 19/06 A2962 RMK AO2 T01860062 =
2016-05-04 17:35 METAR KSHD 042135Z AUTO 04005KT 10SM CLR 19/06 A2962 RMK AO2 T01900056 =
2016-05-04 17:15 METAR KSHD 042115Z AUTO 02005KT 10SM SCT095 20/06 A2962 RMK AO2 T02020056 =
2016-05-04 16:55 METAR KSHD 042055Z AUTO 32003KT 10SM BKN095 20/05 A2962 RMK AO2 T01960052 =
2016-05-04 16:35 METAR KSHD 042035Z AUTO 00000KT 10SM BKN095 19/05 A2962 RMK AO2 T01910054 =
2016-05-04 16:15 METAR KSHD 042015Z AUTO 28003KT 10SM BKN095 19/06 A2963 RMK AO2 T01940056 =
2016-05-04 15:55 METAR KSHD 041955Z AUTO 30005KT 10SM SCT095 19/06 A2963 RMK AO2 T01930057 =
2016-05-04 15:35 METAR KSHD 041935Z AUTO 26005KT 10SM CLR 20/08 A2964 RMK AO2 LTG DSNT NE
                 T01950077 =
2016-05-04 15:15 METAR KSHD 041915Z AUTO 27007KT 240V300 10SM CLR 19/07 A2964 RMK AO2 T01940074 =
2016-05-04 14:55 METAR KSHD 041855Z AUTO 25008KT 10SM SCT090 19/09 A2965 RMK AO2 T01880090 =
2016-05-04 14:35 METAR KSHD 041835Z AUTO 31008KT 10SM SCT047 SCT055 SCT090 19/10 A2966 RMK AO2
                 LTG DSNT W T01890097 =
2016-05-04 14:15 METAR KSHD 041815Z AUTO 30009KT 10SM CLR 18/09 A2966 RMK AO2 T01840090 =
2016-05-04 13:55 METAR KSHD 041755Z AUTO 31008KT 10SM SCT036 SCT095 18/13 A2967 RMK AO2 60001
                 T01800125 10180 20123 =
2016-05-04 13:35 METAR KSHD 041735Z AUTO 36005KT 10SM SCT050 SCT085 17/13 A2967 RMK AO2 T01660126
                 =
2016-05-04 13:15 METAR KSHD 041715Z AUTO 33006KT 10SM SCT040 BKN050 BKN070 15/12 A2969 RMK AO2
                 LTG DSNT E T01460116 =
2016-05-04 12:55 METAR KSHD 041655Z AUTO 33006KT 10SM -RA BKN032 BKN040 OVC080 14/11 A2969 RMK
                 AO2 LTG DSNT SE P0001 T01380112 =
2016-05-04 12:35 METAR KSHD 041635Z AUTO 33011G15KT 10SM VCTSRA BKN030 BKN041 OVC080 16/11 A2969
                 RMK AO2 LTG DSNT SE T01560111 =
2016-05-04 12:15 METAR KSHD 041615Z AUTO 00000KT 10SM SCT032 SCT040 BKN060 17/10 A2969 RMK AO2
                 T01680100 =
2016-05-04 11:55 METAR KSHD 041555Z AUTO 00000KT 10SM SCT032 SCT038 BKN075 17/10 A2970 RMK AO2
                 LTG DSNT SE T01670103 =
2016-05-04 11:35 METAR KSHD 041535Z AUTO 22004KT 10SM SCT030 SCT095 17/11 A2970 RMK AO2 LTG DSNT
                 SE T01690107 =
2016-05-04 11:15 METAR KSHD 041515Z AUTO 00000KT 10SM SCT055 SCT100 16/11 A2971 RMK AO2 T01630106
                 =
2016-05-04 10:55 METAR KSHD 041455Z AUTO 00000KT 10SM SCT055 BKN065 BKN090 16/12 A2972 RMK AO2
                 T01630118 =
2016-05-04 10:35 METAR KSHD 041435Z AUTO 00000KT 10SM -RA SCT049 BKN065 OVC075 15/11 A2972 RMK
                 AO2 T01530110 =
2016-05-04 10:15 METAR KSHD 041415Z AUTO 00000KT 10SM SCT055 BKN080 16/12 A2973 RMK AO2 LTG DSNT
                 S T01560117 =
2016-05-04 09:55 METAR KSHD 041355Z AUTO 00000KT 10SM CLR 15/12 A2973 RMK AO2 T01530117 =
2016-05-04 09:35 METAR KSHD 041335Z AUTO 00000KT 10SM SCT100 15/12 A2973 RMK AO2 T01490121 =
2016-05-04 09:15 METAR KSHD 041315Z AUTO 00000KT 10SM BKN100 15/12 A2973 RMK AO2 T01460117 =
2016-05-04 08:55 METAR KSHD 041255Z AUTO 00000KT 10SM OVC100 14/11 A2973 RMK AO2 T01350112 =
2016-05-04 08:35 METAR KSHD 041235Z AUTO 00000KT 10SM OVC100 13/12 A2974 RMK AO2 T01300120 =
2016-05-04 08:15 METAR KSHD 041215Z AUTO 00000KT 10SM OVC100 13/12 A2974 RMK AO2 T01250117 =
2016-05-04 07:55 METAR KSHD 041155Z AUTO 00000KT 10SM SCT100 12/11 A2974 RMK AO2 70060 T01220111
                 10145 20102 =
2016-05-04 07:35 METAR KSHD 041135Z AUTO 00000KT 10SM CLR 12/11 A2974 RMK AO2 T01150114 =
2016-05-04 07:15 METAR KSHD 041115Z AUTO 00000KT 5SM BR CLR 10/10 A2975 RMK AO2 T01040104 =
2016-05-04 06:55 METAR KSHD 041055Z AUTO 00000KT 10SM SCT085 11/11 A2974 RMK AO2 T01050105 =
2016-05-04 06:35 METAR KSHD 041035Z AUTO 00000KT 10SM SCT085 10/10 A2975 RMK AO2 T01040104 =
2016-05-04 06:15 METAR KSHD 041015Z AUTO 26003KT 10SM SCT095 10/10 A2975 RMK AO2 T01030103 =
2016-05-04 05:55 METAR KSHD 040955Z AUTO 00000KT 10SM BKN085 11/11 A2975 RMK AO2 T01110110 =
2016-05-04 05:35 METAR KSHD 040935Z AUTO 00000KT 10SM SCT017 SCT095 11/11 A2975 RMK AO2 T01110111
                 =
2016-05-04 05:15 METAR KSHD 040915Z AUTO 00000KT 10SM SCT017 BKN095 12/11 A2976 RMK AO2 T01150112
                 =
2016-05-04 04:55 METAR KSHD 040855Z AUTO 00000KT 10SM BKN095 12/12 A2976 RMK AO2 T01190116 =
2016-05-04 04:35 METAR KSHD 040835Z AUTO 00000KT 10SM BKN095 12/12 A2976 RMK AO2 T01220120 =
2016-05-04 04:15 METAR KSHD 040815Z AUTO 00000KT 10SM OVC095 13/13 A2976 RMK AO2 T01270126 =
2016-05-04 03:55 METAR KSHD 040755Z AUTO 00000KT 10SM OVC095 13/13 A2976 RMK AO2 LTG DSNT SE
                 T01280128 =
2016-05-04 03:35 METAR KSHD 040735Z AUTO 00000KT 7SM OVC095 13/13 A2976 RMK AO2 T01300130 =
2016-05-04 03:15 METAR KSHD 040715Z AUTO 00000KT 7SM BKN095 13/13 A2976 RMK AO2 T01340134 =
2016-05-04 02:55 METAR KSHD 040655Z AUTO 31003KT 7SM BKN095 13/13 A2977 RMK AO2 T01340134 =
2016-05-04 02:35 METAR KSHD 040635Z AUTO 31004KT 7SM OVC095 14/14 A2977 RMK AO2 T01360136 =
2016-05-04 02:15 METAR KSHD 040615Z AUTO 33003KT 10SM OVC095 15/14 A2979 RMK AO2 T01450143 =
2016-05-04 01:55 METAR KSHD 040555Z AUTO 34003KT 10SM SCT043 BKN065 OVC095 15/15 A2979 RMK AO2
                 60004 T01450145 10179 20140 =
2016-05-04 01:35 METAR KSHD 040535Z AUTO 00000KT 10SM SCT043 BKN050 OVC095 14/14 A2980 RMK AO2
                 T01440143 =
2016-05-04 01:15 METAR KSHD 040515Z AUTO 01003KT 10SM SCT044 BKN050 BKN095 15/15 A2980 RMK AO2
                 T01450145 =
2016-05-04 00:55 METAR KSHD 040455Z AUTO 00000KT 7SM BKN046 14/14 A2980 RMK AO2 T01410141 =

Support USWX by starting your Amazon purchase here.